sensor_id;sensor_type;location;lat;lon;timestamp;temperature;humidity
7030;DHT22;3556;53.500;10.176;2022-12-29T00:01:27;8.00;99.90
7030;DHT22;3556;53.500;10.176;2022-12-29T00:03:53;8.10;99.90
7030;DHT22;3556;53.500;10.176;2022-12-29T00:06:18;8.10;99.90
7030;DHT22;3556;53.500;10.176;2022-12-29T00:08:44;8.10;99.90
7030;DHT22;3556;53.500;10.176;2022-12-29T00:11:18;8.10;99.90
7030;DHT22;3556;53.500;10.176;2022-12-29T00:13:44;8.10;99.90
7030;DHT22;3556;53.500;10.176;2022-12-29T00:16:30;8.20;99.90
7030;DHT22;3556;53.500;10.176;2022-12-29T00:18:56;8.20;99.90
7030;DHT22;3556;53.500;10.176;2022-12-29T00:21:24;8.20;99.90
7030;DHT22;3556;53.500;10.176;2022-12-29T00:24:13;8.20;99.90
7030;DHT22;3556;53.500;10.176;2022-12-29T00:27:08;8.20;99.90
7030;DHT22;3556;53.500;10.176;2022-12-29T00:29:53;8.30;99.90
7030;DHT22;3556;53.500;10.176;2022-12-29T00:32:37;8.30;99.90
7030;DHT22;3556;53.500;10.176;2022-12-29T00:35:29;8.30;99.90
7030;DHT22;3556;53.500;10.176;2022-12-29T00:37:58;8.30;99.90
7030;DHT22;3556;53.500;10.176;2022-12-29T00:40:43;8.30;99.90
7030;DHT22;3556;53.500;10.176;2022-12-29T00:43:27;8.40;99.90
7030;DHT22;3556;53.500;10.176;2022-12-29T00:46:11;8.40;99.90
7030;DHT22;3556;53.500;10.176;2022-12-29T00:48:36;8.40;99.90
7030;DHT22;3556;53.500;10.176;2022-12-29T00:51:28;8.50;99.90
7030;DHT22;3556;53.500;10.176;2022-12-29T00:53:54;8.50;99.90
7030;DHT22;3556;53.500;10.176;2022-12-29T00:56:19;8.50;99.90
7030;DHT22;3556;53.500;10.176;2022-12-29T00:58:45;8.60;99.90
7030;DHT22;3556;53.500;10.176;2022-12-29T01:01:10;8.60;99.90
7030;DHT22;3556;53.500;10.176;2022-12-29T01:03:37;8.60;99.90
7030;DHT22;3556;53.500;10.176;2022-12-29T01:06:05;8.60;99.90
7030;DHT22;3556;53.500;10.176;2022-12-29T01:08:31;8.60;99.90
7030;DHT22;3556;53.500;10.176;2022-12-29T01:11:09;8.60;99.90
7030;DHT22;3556;53.500;10.176;2022-12-29T01:13:36;8.70;99.90
7030;DHT22;3556;53.500;10.176;2022-12-29T01:16:03;8.60;99.90
7030;DHT22;3556;53.500;10.176;2022-12-29T01:18:29;8.70;99.90
7030;DHT22;3556;53.500;10.176;2022-12-29T01:21:03;8.70;99.90
7030;DHT22;3556;53.500;10.176;2022-12-29T01:23:30;8.70;99.90
7030;DHT22;3556;53.500;10.176;2022-12-29T01:25:56;8.70;99.90
7030;DHT22;3556;53.500;10.176;2022-12-29T01:28:22;8.80;99.90
7030;DHT22;3556;53.500;10.176;2022-12-29T01:30:48;8.80;99.90
7030;DHT22;3556;53.500;10.176;2022-12-29T01:33:14;8.80;99.90
7030;DHT22;3556;53.500;10.176;2022-12-29T01:35:39;8.80;99.90
7030;DHT22;3556;53.500;10.176;2022-12-29T01:38:05;8.80;99.90
7030;DHT22;3556;53.500;10.176;2022-12-29T01:40:31;8.90;99.90
7030;DHT22;3556;53.500;10.176;2022-12-29T01:42:57;8.90;99.90
7030;DHT22;3556;53.500;10.176;2022-12-29T01:45:22;8.90;99.90
7030;DHT22;3556;53.500;10.176;2022-12-29T01:47:52;8.90;99.90
7030;DHT22;3556;53.500;10.176;2022-12-29T01:52:59;8.90;99.90
7030;DHT22;3556;53.500;10.176;2022-12-29T01:55:27;8.90;99.90
7030;DHT22;3556;53.500;10.176;2022-12-29T01:57:56;8.90;99.90
7030;DHT22;3556;53.500;10.176;2022-12-29T02:00:24;8.90;99.90
7030;DHT22;3556;53.500;10.176;2022-12-29T02:02:51;8.90;99.90
7030;DHT22;3556;53.500;10.176;2022-12-29T02:08:02;8.80;99.90
7030;DHT22;3556;53.500;10.176;2022-12-29T02:10:30;8.80;99.90
7030;DHT22;3556;53.500;10.176;2022-12-29T02:12:56;8.80;99.90
7030;DHT22;3556;53.500;10.176;2022-12-29T02:27:10;8.90;99.90
7030;DHT22;3556;53.500;10.176;2022-12-29T02:30:03;8.80;99.90
7030;DHT22;3556;53.500;10.176;2022-12-29T02:32:52;8.80;99.90
7030;DHT22;3556;53.500;10.176;2022-12-29T02:42:56;8.90;99.90
7030;DHT22;3556;53.500;10.176;2022-12-29T02:48:08;8.80;99.90
7030;DHT22;3556;53.500;10.176;2022-12-29T02:50:44;8.90;99.90
7030;DHT22;3556;53.500;10.176;2022-12-29T02:53:15;8.90;99.90
7030;DHT22;3556;53.500;10.176;2022-12-29T02:55:49;8.90;99.90
7030;DHT22;3556;53.500;10.176;2022-12-29T03:11:40;8.90;99.90
7030;DHT22;3556;53.500;10.176;2022-12-29T03:17:56;9.00;99.90
7030;DHT22;3556;53.500;10.176;2022-12-29T03:20:32;9.00;99.90
7030;DHT22;3556;53.500;10.176;2022-12-29T03:23:05;9.00;99.90
7030;DHT22;3556;53.500;10.176;2022-12-29T03:25:39;9.00;99.90
7030;DHT22;3556;53.500;10.176;2022-12-29T03:28:09;9.10;99.90
7030;DHT22;3556;53.500;10.176;2022-12-29T03:30:37;9.10;99.90
7030;DHT22;3556;53.500;10.176;2022-12-29T03:33:08;9.10;99.90
7030;DHT22;3556;53.500;10.176;2022-12-29T03:35:37;9.10;99.90
7030;DHT22;3556;53.500;10.176;2022-12-29T03:38:10;9.10;99.90
7030;DHT22;3556;53.500;10.176;2022-12-29T03:40:41;9.00;99.90
7030;DHT22;3556;53.500;10.176;2022-12-29T03:43:08;9.00;99.90
7030;DHT22;3556;53.500;10.176;2022-12-29T03:45:34;9.00;99.90
7030;DHT22;3556;53.500;10.176;2022-12-29T03:47:59;9.10;99.90
7030;DHT22;3556;53.500;10.176;2022-12-29T03:50:25;9.10;99.90
7030;DHT22;3556;53.500;10.176;2022-12-29T03:52:51;9.00;99.90
7030;DHT22;3556;53.500;10.176;2022-12-29T03:55:16;9.00;99.90
7030;DHT22;3556;53.500;10.176;2022-12-29T03:57:42;9.00;99.90
7030;DHT22;3556;53.500;10.176;2022-12-29T04:00:08;9.00;99.90
7030;DHT22;3556;53.500;10.176;2022-12-29T04:02:34;9.00;99.90
7030;DHT22;3556;53.500;10.176;2022-12-29T04:04:59;9.00;99.90
7030;DHT22;3556;53.500;10.176;2022-12-29T04:07:25;9.00;99.90
7030;DHT22;3556;53.500;10.176;2022-12-29T04:09:50;9.00;99.90
7030;DHT22;3556;53.500;10.176;2022-12-29T04:12:16;9.00;99.90
7030;DHT22;3556;53.500;10.176;2022-12-29T04:14:42;9.00;99.90
7030;DHT22;3556;53.500;10.176;2022-12-29T04:17:07;9.00;99.90
7030;DHT22;3556;53.500;10.176;2022-12-29T04:19:33;9.00;99.90
7030;DHT22;3556;53.500;10.176;2022-12-29T04:21:58;8.90;99.90
7030;DHT22;3556;53.500;10.176;2022-12-29T04:24:24;9.00;99.90
7030;DHT22;3556;53.500;10.176;2022-12-29T04:26:49;9.00;99.90
7030;DHT22;3556;53.500;10.176;2022-12-29T04:29:15;9.00;99.90
7030;DHT22;3556;53.500;10.176;2022-12-29T04:31:41;9.00;99.90
7030;DHT22;3556;53.500;10.176;2022-12-29T04:34:06;9.00;99.90
7030;DHT22;3556;53.500;10.176;2022-12-29T04:36:32;9.00;99.90
7030;DHT22;3556;53.500;10.176;2022-12-29T04:38:58;9.10;99.90
7030;DHT22;3556;53.500;10.176;2022-12-29T04:41:24;9.00;99.90
7030;DHT22;3556;53.500;10.176;2022-12-29T04:43:49;9.10;99.90
7030;DHT22;3556;53.500;10.176;2022-12-29T04:46:15;9.10;99.90
7030;DHT22;3556;53.500;10.176;2022-12-29T04:48:41;9.10;99.90
7030;DHT22;3556;53.500;10.176;2022-12-29T04:51:06;9.10;99.90
7030;DHT22;3556;53.500;10.176;2022-12-29T04:53:32;9.20;99.90
7030;DHT22;3556;53.500;10.176;2022-12-29T04:55:57;9.30;99.90
7030;DHT22;3556;53.500;10.176;2022-12-29T04:58:23;9.30;99.90
7030;DHT22;3556;53.500;10.176;2022-12-29T05:00:50;9.30;99.90
7030;DHT22;3556;53.500;10.176;2022-12-29T05:03:16;9.30;99.90
7030;DHT22;3556;53.500;10.176;2022-12-29T05:05:42;9.40;99.90
7030;DHT22;3556;53.500;10.176;2022-12-29T05:08:07;9.40;99.90
7030;DHT22;3556;53.500;10.176;2022-12-29T05:10:33;9.40;99.90
7030;DHT22;3556;53.500;10.176;2022-12-29T05:12:58;9.40;99.90
7030;DHT22;3556;53.500;10.176;2022-12-29T05:15:25;9.50;99.90
7030;DHT22;3556;53.500;10.176;2022-12-29T05:17:50;9.50;99.90
7030;DHT22;3556;53.500;10.176;2022-12-29T05:20:16;9.40;99.90
7030;DHT22;3556;53.500;10.176;2022-12-29T05:22:41;9.50;99.90
7030;DHT22;3556;53.500;10.176;2022-12-29T05:25:08;9.40;99.90
7030;DHT22;3556;53.500;10.176;2022-12-29T05:27:33;9.40;99.90
7030;DHT22;3556;53.500;10.176;2022-12-29T05:29:59;9.50;99.90
7030;DHT22;3556;53.500;10.176;2022-12-29T05:32:25;9.40;99.90
7030;DHT22;3556;53.500;10.176;2022-12-29T05:34:50;9.40;99.90
7030;DHT22;3556;53.500;10.176;2022-12-29T05:37:16;9.40;99.90
7030;DHT22;3556;53.500;10.176;2022-12-29T05:39:41;9.40;99.90
7030;DHT22;3556;53.500;10.176;2022-12-29T05:42:07;9.40;99.90
7030;DHT22;3556;53.500;10.176;2022-12-29T05:44:32;9.50;99.90
7030;DHT22;3556;53.500;10.176;2022-12-29T05:46:58;9.40;99.90
7030;DHT22;3556;53.500;10.176;2022-12-29T05:49:24;9.50;99.90
7030;DHT22;3556;53.500;10.176;2022-12-29T05:51:49;9.50;99.90
7030;DHT22;3556;53.500;10.176;2022-12-29T05:54:15;9.50;99.90
7030;DHT22;3556;53.500;10.176;2022-12-29T05:56:40;9.50;99.90
7030;DHT22;3556;53.500;10.176;2022-12-29T05:59:06;9.50;99.90
7030;DHT22;3556;53.500;10.176;2022-12-29T06:01:32;9.60;99.90
7030;DHT22;3556;53.500;10.176;2022-12-29T06:03:59;9.60;99.90
7030;DHT22;3556;53.500;10.176;2022-12-29T06:06:25;9.60;99.90
7030;DHT22;3556;53.500;10.176;2022-12-29T06:08:51;9.60;99.90
7030;DHT22;3556;53.500;10.176;2022-12-29T06:11:16;9.60;99.90
7030;DHT22;3556;53.500;10.176;2022-12-29T06:13:42;9.60;99.90
7030;DHT22;3556;53.500;10.176;2022-12-29T06:16:08;9.60;99.90
7030;DHT22;3556;53.500;10.176;2022-12-29T06:18:33;9.60;99.90
7030;DHT22;3556;53.500;10.176;2022-12-29T06:21:00;9.60;99.90
7030;DHT22;3556;53.500;10.176;2022-12-29T06:23:26;9.70;99.90
7030;DHT22;3556;53.500;10.176;2022-12-29T06:25:52;9.70;99.90
7030;DHT22;3556;53.500;10.176;2022-12-29T06:28:17;9.70;99.90
7030;DHT22;3556;53.500;10.176;2022-12-29T06:30:44;9.70;99.90
7030;DHT22;3556;53.500;10.176;2022-12-29T06:33:11;9.70;99.90
7030;DHT22;3556;53.500;10.176;2022-12-29T06:35:36;9.60;99.90
7030;DHT22;3556;53.500;10.176;2022-12-29T06:38:02;9.60;99.90
7030;DHT22;3556;53.500;10.176;2022-12-29T06:40:28;9.60;99.90
7030;DHT22;3556;53.500;10.176;2022-12-29T06:42:53;9.60;99.90
7030;DHT22;3556;53.500;10.176;2022-12-29T06:45:19;9.60;99.90
7030;DHT22;3556;53.500;10.176;2022-12-29T06:47:45;9.60;99.90
7030;DHT22;3556;53.500;10.176;2022-12-29T06:50:10;9.60;99.90
7030;DHT22;3556;53.500;10.176;2022-12-29T06:52:36;9.60;99.90
7030;DHT22;3556;53.500;10.176;2022-12-29T06:55:02;9.50;99.90
7030;DHT22;3556;53.500;10.176;2022-12-29T06:57:27;9.60;99.90
7030;DHT22;3556;53.500;10.176;2022-12-29T06:59:53;9.60;99.90
7030;DHT22;3556;53.500;10.176;2022-12-29T07:02:21;9.60;99.90
7030;DHT22;3556;53.500;10.176;2022-12-29T07:04:47;9.60;99.90
7030;DHT22;3556;53.500;10.176;2022-12-29T07:07:12;9.60;99.90
7030;DHT22;3556;53.500;10.176;2022-12-29T07:09:38;9.60;99.90
7030;DHT22;3556;53.500;10.176;2022-12-29T07:12:04;9.60;99.90
7030;DHT22;3556;53.500;10.176;2022-12-29T07:14:29;9.50;99.90
7030;DHT22;3556;53.500;10.176;2022-12-29T07:16:55;9.50;99.90
7030;DHT22;3556;53.500;10.176;2022-12-29T07:19:20;9.50;99.90
7030;DHT22;3556;53.500;10.176;2022-12-29T07:21:46;9.50;99.90
7030;DHT22;3556;53.500;10.176;2022-12-29T07:24:12;9.40;99.90
7030;DHT22;3556;53.500;10.176;2022-12-29T07:26:37;9.40;99.90
7030;DHT22;3556;53.500;10.176;2022-12-29T07:29:04;9.50;99.90
7030;DHT22;3556;53.500;10.176;2022-12-29T07:31:29;9.40;99.90
7030;DHT22;3556;53.500;10.176;2022-12-29T07:33:55;9.50;99.90
7030;DHT22;3556;53.500;10.176;2022-12-29T07:36:21;9.40;99.90
7030;DHT22;3556;53.500;10.176;2022-12-29T07:38:46;9.50;99.90
7030;DHT22;3556;53.500;10.176;2022-12-29T07:41:12;9.50;99.90
7030;DHT22;3556;53.500;10.176;2022-12-29T07:43:38;9.50;99.90
7030;DHT22;3556;53.500;10.176;2022-12-29T07:46:03;9.60;99.90
7030;DHT22;3556;53.500;10.176;2022-12-29T07:48:29;9.70;99.90
7030;DHT22;3556;53.500;10.176;2022-12-29T07:50:55;9.60;99.90
7030;DHT22;3556;53.500;10.176;2022-12-29T07:53:20;9.60;99.90
7030;DHT22;3556;53.500;10.176;2022-12-29T07:55:46;9.60;99.90
7030;DHT22;3556;53.500;10.176;2022-12-29T07:58:11;9.60;99.90
7030;DHT22;3556;53.500;10.176;2022-12-29T08:00:38;9.50;99.90
7030;DHT22;3556;53.500;10.176;2022-12-29T08:03:04;9.50;99.90
7030;DHT22;3556;53.500;10.176;2022-12-29T08:05:33;9.50;99.90
7030;DHT22;3556;53.500;10.176;2022-12-29T08:07:59;9.50;99.90
7030;DHT22;3556;53.500;10.176;2022-12-29T08:10:25;9.50;99.90
7030;DHT22;3556;53.500;10.176;2022-12-29T08:12:51;9.50;99.90
7030;DHT22;3556;53.500;10.176;2022-12-29T08:15:16;9.50;99.90
7030;DHT22;3556;53.500;10.176;2022-12-29T08:17:42;9.60;99.90
7030;DHT22;3556;53.500;10.176;2022-12-29T08:20:08;9.60;99.90
7030;DHT22;3556;53.500;10.176;2022-12-29T08:22:34;9.60;99.90
7030;DHT22;3556;53.500;10.176;2022-12-29T08:24:59;9.60;99.90
7030;DHT22;3556;53.500;10.176;2022-12-29T08:27:25;9.50;99.90
7030;DHT22;3556;53.500;10.176;2022-12-29T08:29:51;9.50;99.90
7030;DHT22;3556;53.500;10.176;2022-12-29T08:32:17;9.50;99.90
7030;DHT22;3556;53.500;10.176;2022-12-29T08:34:43;9.60;99.90
7030;DHT22;3556;53.500;10.176;2022-12-29T08:37:08;9.60;99.90
7030;DHT22;3556;53.500;10.176;2022-12-29T08:39:34;9.50;99.90
7030;DHT22;3556;53.500;10.176;2022-12-29T08:42:00;9.50;99.90
7030;DHT22;3556;53.500;10.176;2022-12-29T08:44:25;9.50;99.90
7030;DHT22;3556;53.500;10.176;2022-12-29T08:46:51;9.50;99.90
7030;DHT22;3556;53.500;10.176;2022-12-29T08:49:16;9.50;99.90
7030;DHT22;3556;53.500;10.176;2022-12-29T08:51:42;9.60;99.90
7030;DHT22;3556;53.500;10.176;2022-12-29T08:54:08;9.70;99.90
7030;DHT22;3556;53.500;10.176;2022-12-29T08:56:33;9.70;99.90
7030;DHT22;3556;53.500;10.176;2022-12-29T08:58:59;9.80;99.90
7030;DHT22;3556;53.500;10.176;2022-12-29T09:01:25;9.80;99.90
7030;DHT22;3556;53.500;10.176;2022-12-29T09:03:50;9.80;99.90
7030;DHT22;3556;53.500;10.176;2022-12-29T09:06:17;9.80;99.90
7030;DHT22;3556;53.500;10.176;2022-12-29T09:08:43;9.80;99.90
7030;DHT22;3556;53.500;10.176;2022-12-29T09:11:19;9.80;99.90
7030;DHT22;3556;53.500;10.176;2022-12-29T09:13:45;9.90;99.90
7030;DHT22;3556;53.500;10.176;2022-12-29T09:16:12;9.80;99.90
7030;DHT22;3556;53.500;10.176;2022-12-29T09:18:38;9.90;99.90
7030;DHT22;3556;53.500;10.176;2022-12-29T09:21:05;9.90;99.90
7030;DHT22;3556;53.500;10.176;2022-12-29T09:23:32;9.80;99.90
7030;DHT22;3556;53.500;10.176;2022-12-29T09:25:58;9.80;99.90
7030;DHT22;3556;53.500;10.176;2022-12-29T09:28:23;9.80;99.90
7030;DHT22;3556;53.500;10.176;2022-12-29T09:30:50;9.80;99.90
7030;DHT22;3556;53.500;10.176;2022-12-29T09:33:16;9.90;99.90
7030;DHT22;3556;53.500;10.176;2022-12-29T09:35:43;10.00;99.90
7030;DHT22;3556;53.500;10.176;2022-12-29T09:38:09;10.00;99.90
7030;DHT22;3556;53.500;10.176;2022-12-29T09:40:35;10.10;99.90
7030;DHT22;3556;53.500;10.176;2022-12-29T09:45:43;10.20;99.90
7030;DHT22;3556;53.500;10.176;2022-12-29T09:48:23;10.20;99.90
7030;DHT22;3556;53.500;10.176;2022-12-29T09:50:55;10.20;99.90
7030;DHT22;3556;53.500;10.176;2022-12-29T09:53:30;10.20;99.90
7030;DHT22;3556;53.500;10.176;2022-12-29T09:56:00;10.20;99.90
7030;DHT22;3556;53.500;10.176;2022-12-29T10:01:05;10.30;99.90
7030;DHT22;3556;53.500;10.176;2022-12-29T10:03:47;10.30;99.90
7030;DHT22;3556;53.500;10.176;2022-12-29T10:06:20;10.30;99.90
7030;DHT22;3556;53.500;10.176;2022-12-29T10:25:15;10.60;99.90
7030;DHT22;3556;53.500;10.176;2022-12-29T10:27:42;10.60;99.90
7030;DHT22;3556;53.500;10.176;2022-12-29T10:30:12;10.50;99.90
7030;DHT22;3556;53.500;10.176;2022-12-29T10:32:44;10.50;99.90
7030;DHT22;3556;53.500;10.176;2022-12-29T10:35:22;10.60;99.90
7030;DHT22;3556;53.500;10.176;2022-12-29T10:38:01;10.70;99.90
7030;DHT22;3556;53.500;10.176;2022-12-29T10:40:53;10.80;99.90
7030;DHT22;3556;53.500;10.176;2022-12-29T10:43:27;11.00;99.90
7030;DHT22;3556;53.500;10.176;2022-12-29T10:46:04;11.10;99.90
7030;DHT22;3556;53.500;10.176;2022-12-29T10:48:32;11.10;99.90
7030;DHT22;3556;53.500;10.176;2022-12-29T10:51:01;11.10;99.90
7030;DHT22;3556;53.500;10.176;2022-12-29T10:53:33;11.10;99.90
7030;DHT22;3556;53.500;10.176;2022-12-29T10:56:01;11.10;99.90
7030;DHT22;3556;53.500;10.176;2022-12-29T10:58:28;11.10;99.90
7030;DHT22;3556;53.500;10.176;2022-12-29T11:00:55;11.10;99.90
7030;DHT22;3556;53.500;10.176;2022-12-29T11:03:50;11.00;99.90
7030;DHT22;3556;53.500;10.176;2022-12-29T11:06:26;11.00;99.90
7030;DHT22;3556;53.500;10.176;2022-12-29T11:09:23;11.00;99.90
7030;DHT22;3556;53.500;10.176;2022-12-29T11:11:50;11.00;99.90
7030;DHT22;3556;53.500;10.176;2022-12-29T11:14:20;11.00;99.90
7030;DHT22;3556;53.500;10.176;2022-12-29T11:17:00;11.00;99.90
7030;DHT22;3556;53.500;10.176;2022-12-29T11:19:32;11.00;99.90
7030;DHT22;3556;53.500;10.176;2022-12-29T11:22:22;11.00;99.90
7030;DHT22;3556;53.500;10.176;2022-12-29T11:24:50;11.00;99.90
7030;DHT22;3556;53.500;10.176;2022-12-29T11:27:22;11.00;99.90
7030;DHT22;3556;53.500;10.176;2022-12-29T11:29:50;11.00;99.90
7030;DHT22;3556;53.500;10.176;2022-12-29T11:34:47;10.80;99.90
7030;DHT22;3556;53.500;10.176;2022-12-29T11:40:35;10.60;99.90
7030;DHT22;3556;53.500;10.176;2022-12-29T11:42:41;10.60;99.90
7030;DHT22;3556;53.500;10.176;2022-12-29T11:47:49;10.60;99.90
7030;DHT22;3556;53.500;10.176;2022-12-29T11:50:21;10.60;99.90
7030;DHT22;3556;53.500;10.176;2022-12-29T11:52:49;10.60;99.90
7030;DHT22;3556;53.500;10.176;2022-12-29T11:55:21;10.50;99.90
7030;DHT22;3556;53.500;10.176;2022-12-29T11:57:47;10.60;99.90
7030;DHT22;3556;53.500;10.176;2022-12-29T12:00:25;10.60;99.90
7030;DHT22;3556;53.500;10.176;2022-12-29T12:05:54;10.60;99.90
7030;DHT22;3556;53.500;10.176;2022-12-29T12:16:50;10.30;99.90
7030;DHT22;3556;53.500;10.176;2022-12-29T12:19:46;10.20;99.90
7030;DHT22;3556;53.500;10.176;2022-12-29T12:22:21;10.20;99.90
7030;DHT22;3556;53.500;10.176;2022-12-29T12:24:56;10.20;99.90
7030;DHT22;3556;53.500;10.176;2022-12-29T12:27:29;10.20;99.90
7030;DHT22;3556;53.500;10.176;2022-12-29T12:30:01;10.30;99.90
7030;DHT22;3556;53.500;10.176;2022-12-29T12:35:28;10.40;99.90
7030;DHT22;3556;53.500;10.176;2022-12-29T12:38:33;10.40;99.90
7030;DHT22;3556;53.500;10.176;2022-12-29T12:57:10;10.60;99.90
7030;DHT22;3556;53.500;10.176;2022-12-29T13:00:00;10.60;99.90
7030;DHT22;3556;53.500;10.176;2022-12-29T13:03:03;10.60;99.90
7030;DHT22;3556;53.500;10.176;2022-12-29T13:13:59;10.80;99.90
7030;DHT22;3556;53.500;10.176;2022-12-29T13:16:51;10.90;99.90
7030;DHT22;3556;53.500;10.176;2022-12-29T13:24:55;10.90;99.90
7030;DHT22;3556;53.500;10.176;2022-12-29T13:30:39;10.80;99.90
7030;DHT22;3556;53.500;10.176;2022-12-29T13:36:22;10.80;99.90
7030;DHT22;3556;53.500;10.176;2022-12-29T13:38:56;10.70;99.90
7030;DHT22;3556;53.500;10.176;2022-12-29T13:41:41;10.80;99.90
7030;DHT22;3556;53.500;10.176;2022-12-29T13:44:14;10.80;99.90
7030;DHT22;3556;53.500;10.176;2022-12-29T13:46:43;10.80;99.90
7030;DHT22;3556;53.500;10.176;2022-12-29T13:49:17;10.80;99.90
7030;DHT22;3556;53.500;10.176;2022-12-29T13:51:47;10.70;99.90
7030;DHT22;3556;53.500;10.176;2022-12-29T13:54:20;10.70;99.90
7030;DHT22;3556;53.500;10.176;2022-12-29T14:00:16;10.60;99.90
7030;DHT22;3556;53.500;10.176;2022-12-29T14:07:45;10.30;99.90
7030;DHT22;3556;53.500;10.176;2022-12-29T14:10:47;10.30;99.90
7030;DHT22;3556;53.500;10.176;2022-12-29T14:13:23;10.30;99.90
7030;DHT22;3556;53.500;10.176;2022-12-29T14:15:55;10.30;99.90
7030;DHT22;3556;53.500;10.176;2022-12-29T14:18:23;10.20;99.90
7030;DHT22;3556;53.500;10.176;2022-12-29T14:20:56;10.20;99.90
7030;DHT22;3556;53.500;10.176;2022-12-29T14:28:38;10.00;99.90
7030;DHT22;3556;53.500;10.176;2022-12-29T14:33:41;9.90;99.90
7030;DHT22;3556;53.500;10.176;2022-12-29T14:36:37;9.90;99.90
7030;DHT22;3556;53.500;10.176;2022-12-29T14:39:28;9.80;99.90
7030;DHT22;3556;53.500;10.176;2022-12-29T14:42:04;9.80;99.90
7030;DHT22;3556;53.500;10.176;2022-12-29T14:44:30;9.70;99.90
7030;DHT22;3556;53.500;10.176;2022-12-29T14:47:04;9.40;99.90
7030;DHT22;3556;53.500;10.176;2022-12-29T14:49:38;9.20;99.90
7030;DHT22;3556;53.500;10.176;2022-12-29T14:52:18;9.00;99.90
7030;DHT22;3556;53.500;10.176;2022-12-29T14:57:29;8.80;99.90
7030;DHT22;3556;53.500;10.176;2022-12-29T15:00:05;8.80;99.90
7030;DHT22;3556;53.500;10.176;2022-12-29T15:02:34;8.70;99.90
7030;DHT22;3556;53.500;10.176;2022-12-29T15:05:02;8.70;99.90
7030;DHT22;3556;53.500;10.176;2022-12-29T15:07:29;8.60;99.90
7030;DHT22;3556;53.500;10.176;2022-12-29T15:10:11;8.60;99.90
7030;DHT22;3556;53.500;10.176;2022-12-29T15:12:45;8.60;99.90
7030;DHT22;3556;53.500;10.176;2022-12-29T15:15:24;8.50;99.90
7030;DHT22;3556;53.500;10.176;2022-12-29T15:17:49;8.40;99.90
7030;DHT22;3556;53.500;10.176;2022-12-29T15:20:31;8.30;99.90
7030;DHT22;3556;53.500;10.176;2022-12-29T15:23:02;8.20;99.90
7030;DHT22;3556;53.500;10.176;2022-12-29T15:25:28;8.10;99.90
7030;DHT22;3556;53.500;10.176;2022-12-29T15:27:59;8.10;99.90
7030;DHT22;3556;53.500;10.176;2022-12-29T15:30:26;8.10;99.90
7030;DHT22;3556;53.500;10.176;2022-12-29T15:32:51;8.00;99.90
7030;DHT22;3556;53.500;10.176;2022-12-29T15:35:37;8.00;99.90
7030;DHT22;3556;53.500;10.176;2022-12-29T15:38:24;7.90;99.90
7030;DHT22;3556;53.500;10.176;2022-12-29T15:41:46;8.00;99.90
7030;DHT22;3556;53.500;10.176;2022-12-29T15:43:57;8.10;99.90
7030;DHT22;3556;53.500;10.176;2022-12-29T15:46:29;8.10;99.90
7030;DHT22;3556;53.500;10.176;2022-12-29T15:48:55;8.10;99.90
7030;DHT22;3556;53.500;10.176;2022-12-29T15:51:31;8.10;99.90
7030;DHT22;3556;53.500;10.176;2022-12-29T15:53:58;8.20;99.90
7030;DHT22;3556;53.500;10.176;2022-12-29T15:56:27;8.10;99.90
7030;DHT22;3556;53.500;10.176;2022-12-29T15:58:53;8.20;99.90
7030;DHT22;3556;53.500;10.176;2022-12-29T16:01:23;8.20;99.90
7030;DHT22;3556;53.500;10.176;2022-12-29T16:03:50;8.20;99.90
7030;DHT22;3556;53.500;10.176;2022-12-29T16:06:31;8.10;99.90
7030;DHT22;3556;53.500;10.176;2022-12-29T16:09:17;8.10;99.90
7030;DHT22;3556;53.500;10.176;2022-12-29T16:11:53;8.10;99.90
7030;DHT22;3556;53.500;10.176;2022-12-29T16:16:57;8.00;99.90
7030;DHT22;3556;53.500;10.176;2022-12-29T16:19:32;8.00;99.90
7030;DHT22;3556;53.500;10.176;2022-12-29T16:22:00;8.00;99.90
7030;DHT22;3556;53.500;10.176;2022-12-29T16:24:31;8.00;99.90
7030;DHT22;3556;53.500;10.176;2022-12-29T16:27:07;8.00;99.90
7030;DHT22;3556;53.500;10.176;2022-12-29T16:29:34;8.00;99.90
7030;DHT22;3556;53.500;10.176;2022-12-29T16:32:00;8.00;99.90
7030;DHT22;3556;53.500;10.176;2022-12-29T16:34:30;8.10;99.90
7030;DHT22;3556;53.500;10.176;2022-12-29T16:36:57;8.20;99.90
7030;DHT22;3556;53.500;10.176;2022-12-29T16:39:37;8.20;99.90
7030;DHT22;3556;53.500;10.176;2022-12-29T16:42:33;8.30;99.90
7030;DHT22;3556;53.500;10.176;2022-12-29T16:47:47;8.30;99.90
7030;DHT22;3556;53.500;10.176;2022-12-29T16:50:17;8.30;99.90
7030;DHT22;3556;53.500;10.176;2022-12-29T16:52:49;8.20;99.90
7030;DHT22;3556;53.500;10.176;2022-12-29T16:55:18;8.20;99.90
7030;DHT22;3556;53.500;10.176;2022-12-29T16:57:47;8.20;99.90
7030;DHT22;3556;53.500;10.176;2022-12-29T17:00:26;8.20;99.90
7030;DHT22;3556;53.500;10.176;2022-12-29T17:02:58;8.20;99.90
7030;DHT22;3556;53.500;10.176;2022-12-29T17:05:24;8.20;99.90
7030;DHT22;3556;53.500;10.176;2022-12-29T17:07:50;8.20;99.90
7030;DHT22;3556;53.500;10.176;2022-12-29T17:10:20;8.10;99.90
7030;DHT22;3556;53.500;10.176;2022-12-29T17:12:47;8.10;99.90
7030;DHT22;3556;53.500;10.176;2022-12-29T17:15:27;8.10;99.90
7030;DHT22;3556;53.500;10.176;2022-12-29T17:17:59;8.10;99.90
7030;DHT22;3556;53.500;10.176;2022-12-29T17:20:30;8.00;99.90
7030;DHT22;3556;53.500;10.176;2022-12-29T17:22:57;8.00;99.90
7030;DHT22;3556;53.500;10.176;2022-12-29T17:27:57;8.00;99.90
7030;DHT22;3556;53.500;10.176;2022-12-29T17:30:25;8.00;99.90
7030;DHT22;3556;53.500;10.176;2022-12-29T17:33:03;8.00;99.90
7030;DHT22;3556;53.500;10.176;2022-12-29T17:35:29;7.90;99.90
7030;DHT22;3556;53.500;10.176;2022-12-29T17:37:54;8.00;99.90
7030;DHT22;3556;53.500;10.176;2022-12-29T17:40:31;8.00;99.90
7030;DHT22;3556;53.500;10.176;2022-12-29T17:42:58;8.00;99.90
7030;DHT22;3556;53.500;10.176;2022-12-29T17:45:31;8.00;99.90
7030;DHT22;3556;53.500;10.176;2022-12-29T17:47:57;8.00;99.90
7030;DHT22;3556;53.500;10.176;2022-12-29T17:50:28;8.00;99.90
7030;DHT22;3556;53.500;10.176;2022-12-29T17:52:56;7.90;99.90
7030;DHT22;3556;53.500;10.176;2022-12-29T17:55:23;7.90;99.90
7030;DHT22;3556;53.500;10.176;2022-12-29T17:57:50;7.90;99.90
7030;DHT22;3556;53.500;10.176;2022-12-29T18:00:28;7.90;99.90
7030;DHT22;3556;53.500;10.176;2022-12-29T18:02:55;7.90;99.90
7030;DHT22;3556;53.500;10.176;2022-12-29T18:05:29;7.90;99.90
7030;DHT22;3556;53.500;10.176;2022-12-29T18:07:57;7.80;99.90
7030;DHT22;3556;53.500;10.176;2022-12-29T18:10:25;7.80;99.90
7030;DHT22;3556;53.500;10.176;2022-12-29T18:12:53;7.80;99.90
7030;DHT22;3556;53.500;10.176;2022-12-29T18:15:27;7.80;99.90
7030;DHT22;3556;53.500;10.176;2022-12-29T18:17:59;7.80;99.90
7030;DHT22;3556;53.500;10.176;2022-12-29T18:20:28;7.80;99.90
7030;DHT22;3556;53.500;10.176;2022-12-29T18:22:53;7.80;99.90
7030;DHT22;3556;53.500;10.176;2022-12-29T18:25:26;7.90;99.90
7030;DHT22;3556;53.500;10.176;2022-12-29T18:27:55;7.90;99.90
7030;DHT22;3556;53.500;10.176;2022-12-29T18:30:21;8.00;99.90
7030;DHT22;3556;53.500;10.176;2022-12-29T18:32:46;8.00;99.90
7030;DHT22;3556;53.500;10.176;2022-12-29T18:35:37;8.00;99.90
7030;DHT22;3556;53.500;10.176;2022-12-29T18:38:03;8.00;99.90
7030;DHT22;3556;53.500;10.176;2022-12-29T18:40:31;8.00;99.90
7030;DHT22;3556;53.500;10.176;2022-12-29T18:42:57;8.10;99.90
7030;DHT22;3556;53.500;10.176;2022-12-29T18:45:23;8.20;99.90
7030;DHT22;3556;53.500;10.176;2022-12-29T18:47:49;8.30;99.90
7030;DHT22;3556;53.500;10.176;2022-12-29T18:50:16;8.30;99.90